createdAt,value
2018-08-28T00:00:14.455Z,17.09
2018-08-28T00:01:14.396Z,17.03
2018-08-28T00:03:07.178Z,17.14
2018-08-28T00:04:07.103Z,17.03
2018-08-28T00:05:59.870Z,17.03
2018-08-28T00:06:59.798Z,17.00
2018-08-28T00:08:52.563Z,17.00
2018-08-28T00:09:52.496Z,17.00
2018-08-28T00:11:44.459Z,17.00
2018-08-28T00:12:44.387Z,16.91
2018-08-28T00:14:37.156Z,17.00
2018-08-28T00:15:37.096Z,16.95
2018-08-28T00:17:29.868Z,16.95
2018-08-28T00:18:29.790Z,16.84
2018-08-28T00:20:22.590Z,16.81
2018-08-28T00:21:22.496Z,16.78
2018-08-28T00:23:15.295Z,16.78
2018-08-28T00:24:15.223Z,16.77
2018-08-28T00:26:08.001Z,16.80
2018-08-28T00:27:07.925Z,16.85
2018-08-28T00:29:00.691Z,16.88
2018-08-28T00:30:00.634Z,16.84
2018-08-28T00:31:53.398Z,16.87
2018-08-28T00:32:53.320Z,16.82
2018-08-28T00:34:46.099Z,16.81
2018-08-28T00:35:46.035Z,16.88
2018-08-28T00:37:37.856Z,16.87
2018-08-28T00:38:37.774Z,16.81
2018-08-28T00:40:30.537Z,16.78
2018-08-28T00:41:30.476Z,16.81
2018-08-28T00:43:23.256Z,16.77
2018-08-28T00:44:23.178Z,16.69
2018-08-28T00:46:15.949Z,16.70
2018-08-28T00:47:15.878Z,16.77
2018-08-28T00:49:08.653Z,16.78
2018-08-28T00:50:08.587Z,16.78
2018-08-28T00:52:00.481Z,16.77
2018-08-28T00:53:00.406Z,16.75
2018-08-28T00:54:53.181Z,16.82
2018-08-28T00:55:53.117Z,16.91
2018-08-28T00:57:45.903Z,16.95
2018-08-28T00:58:45.849Z,16.92
2018-08-28T01:00:37.722Z,16.90
2018-08-28T01:01:37.651Z,16.90
2018-08-28T01:03:29.466Z,17.02
2018-08-28T01:04:29.397Z,16.98
2018-08-28T01:06:22.175Z,17.09
2018-08-28T01:07:22.100Z,16.99
2018-08-28T01:09:14.862Z,17.03
2018-08-28T01:10:14.803Z,17.02
2018-08-28T01:12:07.572Z,17.07
2018-08-28T01:13:07.495Z,17.06
2018-08-28T01:15:00.265Z,17.06
2018-08-28T01:16:00.198Z,17.12
2018-08-28T01:17:52.970Z,17.10
2018-08-28T01:18:52.896Z,17.07
2018-08-28T01:20:45.671Z,17.06
2018-08-28T01:21:45.610Z,17.10
2018-08-28T01:23:38.388Z,17.10
2018-08-28T01:24:38.349Z,17.07
2018-08-28T01:26:31.096Z,17.06
2018-08-28T01:27:31.025Z,17.10
2018-08-28T01:29:23.786Z,17.10
2018-08-28T01:30:23.722Z,17.17
2018-08-28T01:32:16.493Z,17.09
2018-08-28T01:33:16.417Z,17.14
2018-08-28T01:35:09.184Z,17.06
2018-08-28T01:36:09.121Z,17.12
2018-08-28T01:38:02.732Z,17.02
2018-08-28T01:39:02.660Z,17.02
2018-08-28T01:40:55.446Z,17.00
2018-08-28T01:41:55.363Z,16.99
2018-08-28T01:43:48.137Z,17.02
2018-08-28T01:44:48.062Z,17.06
2018-08-28T01:46:40.839Z,16.98
2018-08-28T01:47:40.765Z,17.02
2018-08-28T01:49:33.584Z,17.00
2018-08-28T01:50:33.529Z,16.98
2018-08-28T01:52:26.309Z,17.05
2018-08-28T01:53:26.233Z,16.99
2018-08-28T01:55:19.005Z,17.00
2018-08-28T01:56:18.940Z,17.00
2018-08-28T01:58:11.723Z,16.99
2018-08-28T01:59:11.658Z,17.00
2018-08-28T02:01:04.415Z,17.00
2018-08-28T02:02:04.346Z,17.02
2018-08-28T02:03:57.130Z,17.06
2018-08-28T02:04:57.049Z,16.99
2018-08-28T02:06:49.857Z,17.00
2018-08-28T02:07:49.782Z,17.02
2018-08-28T02:09:42.539Z,17.00
2018-08-28T02:10:42.473Z,17.06
2018-08-28T02:12:35.255Z,16.98
2018-08-28T02:13:35.178Z,17.00
2018-08-28T02:15:27.939Z,16.98
2018-08-28T02:16:27.878Z,16.95
2018-08-28T02:18:20.685Z,16.96
2018-08-28T02:19:20.609Z,16.92
2018-08-28T02:21:13.377Z,16.90
2018-08-28T02:22:13.309Z,16.95
2018-08-28T02:24:06.078Z,16.90
2018-08-28T02:25:06.009Z,16.88
2018-08-28T02:26:58.786Z,16.88
2018-08-28T02:27:58.718Z,16.85
2018-08-28T02:29:51.511Z,16.85
2018-08-28T02:30:51.419Z,16.90
2018-08-28T02:32:44.201Z,16.85
2018-08-28T02:33:44.257Z,16.78
2018-08-28T02:35:35.884Z,16.80
2018-08-28T02:36:35.813Z,16.75
2018-08-28T02:38:28.602Z,16.75
2018-08-28T02:39:28.526Z,16.78
2018-08-28T02:41:21.293Z,16.88
2018-08-28T02:42:21.233Z,16.78
2018-08-28T02:44:14.038Z,16.81
2018-08-28T02:45:13.922Z,16.81
2018-08-28T02:47:06.711Z,16.82
2018-08-28T02:48:06.635Z,16.81
2018-08-28T02:49:59.393Z,16.90
2018-08-28T02:50:59.328Z,16.85
2018-08-28T02:52:52.106Z,16.87
2018-08-28T02:53:52.034Z,16.82
2018-08-28T02:55:44.792Z,16.85
2018-08-28T02:56:44.728Z,16.84
2018-08-28T02:58:37.499Z,16.85
2018-08-28T02:59:37.425Z,16.88
2018-08-28T03:01:30.182Z,16.84
2018-08-28T03:02:30.123Z,16.87
2018-08-28T03:04:22.906Z,16.87
2018-08-28T03:05:22.827Z,16.84
2018-08-28T03:07:14.646Z,16.92
2018-08-28T03:08:14.582Z,16.88
2018-08-28T03:10:07.344Z,16.91
2018-08-28T03:11:07.366Z,16.90
2018-08-28T03:13:00.050Z,16.91
2018-08-28T03:13:59.972Z,16.90
2018-08-28T03:15:52.768Z,16.85
2018-08-28T03:16:52.684Z,16.90
2018-08-28T03:18:45.470Z,16.87
2018-08-28T03:19:45.383Z,16.81
2018-08-28T03:21:38.150Z,16.80
2018-08-28T03:22:38.089Z,16.81
2018-08-28T03:24:30.859Z,16.82
2018-08-28T03:25:30.786Z,16.75
2018-08-28T03:27:22.681Z,16.78
2018-08-28T03:28:22.618Z,16.82
2018-08-28T03:30:15.664Z,16.78
2018-08-28T03:31:15.611Z,16.81
2018-08-28T03:33:08.378Z,16.82
2018-08-28T03:34:08.317Z,16.85
2018-08-28T03:36:01.075Z,16.84
2018-08-28T03:37:01.016Z,16.72
2018-08-28T03:38:53.795Z,16.73
2018-08-28T03:39:53.715Z,16.80
2018-08-28T03:41:46.472Z,16.73
2018-08-28T03:42:46.418Z,16.80
2018-08-28T03:44:39.257Z,16.84
2018-08-28T03:45:39.112Z,16.85
2018-08-28T03:47:30.888Z,16.81
2018-08-28T03:48:30.824Z,16.78
2018-08-28T03:50:23.592Z,16.75
2018-08-28T03:51:23.527Z,16.82
2018-08-28T03:53:16.336Z,16.90
2018-08-28T03:54:16.224Z,16.84
2018-08-28T03:56:09.139Z,16.85
2018-08-28T03:57:08.927Z,16.90
2018-08-28T03:59:01.713Z,16.88
2018-08-28T04:00:01.641Z,16.87
2018-08-28T04:01:54.403Z,16.82
2018-08-28T04:02:54.345Z,16.80
2018-08-28T04:04:47.107Z,16.81
2018-08-28T04:05:47.033Z,16.80
2018-08-28T04:07:39.801Z,16.84
2018-08-28T04:08:39.736Z,16.80
2018-08-28T04:10:32.577Z,16.77
2018-08-28T04:11:32.494Z,16.84
2018-08-28T04:13:25.266Z,16.80
2018-08-28T04:14:25.191Z,16.81
2018-08-28T04:16:17.966Z,16.82
2018-08-28T04:17:17.889Z,16.82
2018-08-28T04:19:10.666Z,16.80
2018-08-28T04:20:10.606Z,16.81
2018-08-28T04:22:03.353Z,16.80
2018-08-28T04:23:03.291Z,16.82
2018-08-28T04:24:56.061Z,16.80
2018-08-28T04:25:55.987Z,16.80
2018-08-28T04:27:48.747Z,16.75
2018-08-28T04:28:48.686Z,16.80
2018-08-28T04:30:41.519Z,16.81
2018-08-28T04:31:41.419Z,16.77
2018-08-28T04:33:34.203Z,16.80
2018-08-28T04:34:34.133Z,16.81
2018-08-28T04:36:26.890Z,16.81
2018-08-28T04:37:26.827Z,16.82
2018-08-28T04:39:19.599Z,16.81
2018-08-28T04:40:19.522Z,16.78
2018-08-28T04:42:12.287Z,16.84
2018-08-28T04:43:12.230Z,16.73
2018-08-28T04:45:05.002Z,16.75
2018-08-28T04:46:04.927Z,16.78
2018-08-28T04:47:57.717Z,16.80
2018-08-28T04:48:57.686Z,16.78
2018-08-28T04:50:50.432Z,16.84
2018-08-28T04:51:50.351Z,16.80
2018-08-28T04:53:43.135Z,16.84
2018-08-28T04:54:43.064Z,16.87
2018-08-28T04:56:35.816Z,16.88
2018-08-28T04:57:35.756Z,16.95
2018-08-28T04:59:28.531Z,16.99
2018-08-28T05:00:28.459Z,16.96
2018-08-28T05:02:21.224Z,16.98
2018-08-28T05:03:21.164Z,17.02
2018-08-28T05:05:13.948Z,16.98
2018-08-28T05:06:13.868Z,16.98
2018-08-28T05:08:05.692Z,16.99
2018-08-28T05:09:05.616Z,16.99
2018-08-28T05:10:58.394Z,17.14
2018-08-28T05:11:58.332Z,16.99
2018-08-28T05:13:51.097Z,16.99
2018-08-28T05:14:51.019Z,17.09
2018-08-28T05:16:43.789Z,17.10
2018-08-28T05:17:43.720Z,17.05
2018-08-28T05:19:36.502Z,17.22
2018-08-28T05:20:36.427Z,17.09
2018-08-28T05:22:29.195Z,17.18
2018-08-28T05:23:29.131Z,17.25
2018-08-28T05:25:21.922Z,17.36
2018-08-28T05:26:21.846Z,17.38
2018-08-28T05:28:14.636Z,17.46
2018-08-28T05:29:14.549Z,17.46
2018-08-28T05:31:06.471Z,17.51
2018-08-28T05:32:06.392Z,17.45
2018-08-28T05:33:59.170Z,17.54
2018-08-28T05:34:59.089Z,17.53
2018-08-28T05:36:51.865Z,17.49
2018-08-28T05:37:51.803Z,17.60
2018-08-28T05:39:44.579Z,17.55
2018-08-28T05:40:44.502Z,17.60
2018-08-28T05:42:37.402Z,17.68
2018-08-28T05:43:37.338Z,17.74
2018-08-28T05:45:30.120Z,17.83
2018-08-28T05:46:30.043Z,17.73
2018-08-28T05:48:22.837Z,17.77
2018-08-28T05:49:22.796Z,17.87
2018-08-28T05:51:15.551Z,17.87
2018-08-28T05:52:15.597Z,18.02
2018-08-28T05:54:08.249Z,17.95
2018-08-28T05:55:08.180Z,18.13
2018-08-28T05:57:00.948Z,18.21
2018-08-28T05:58:00.884Z,18.28
2018-08-28T05:59:53.665Z,18.32
2018-08-28T06:00:53.597Z,18.32
2018-08-28T06:02:46.362Z,18.62
2018-08-28T06:03:46.296Z,18.54
2018-08-28T06:05:39.079Z,18.65
2018-08-28T06:06:39.005Z,18.72
2018-08-28T06:08:31.781Z,18.68
2018-08-28T06:09:31.709Z,18.83
2018-08-28T06:11:24.481Z,18.93
2018-08-28T06:12:24.412Z,19.02
2018-08-28T06:14:17.199Z,19.17
2018-08-28T06:15:17.113Z,19.23
2018-08-28T06:17:09.881Z,19.35
2018-08-28T06:18:09.845Z,19.47
2018-08-28T06:20:02.606Z,20.16
2018-08-28T06:21:02.534Z,20.54
2018-08-28T06:22:55.344Z,21.03
2018-08-28T06:23:55.238Z,21.58
2018-08-28T06:25:48.015Z,22.04
2018-08-28T06:26:47.943Z,22.14
2018-08-28T06:28:40.717Z,22.49
2018-08-28T06:29:40.657Z,22.75
2018-08-28T06:31:33.474Z,22.86
2018-08-28T06:32:33.359Z,22.93
2018-08-28T06:34:25.224Z,22.78
2018-08-28T06:35:25.110Z,22.94
2018-08-28T06:37:16.936Z,23.60
2018-08-28T06:38:16.872Z,23.72
2018-08-28T06:40:09.655Z,23.84
2018-08-28T06:41:09.579Z,24.12
2018-08-28T06:43:02.349Z,24.15
2018-08-28T06:44:02.362Z,24.21
2018-08-28T06:45:55.071Z,24.33
2018-08-28T06:46:54.993Z,24.46
2018-08-28T06:48:47.765Z,24.49
2018-08-28T06:49:47.702Z,24.39
2018-08-28T06:51:40.495Z,24.55
2018-08-28T06:52:40.422Z,24.53
2018-08-28T06:54:33.202Z,24.89
2018-08-28T06:55:33.147Z,24.87
2018-08-28T06:57:25.930Z,25.11
2018-08-28T06:58:25.890Z,25.48
2018-08-28T07:00:18.646Z,25.81
2018-08-28T07:01:18.581Z,25.81
2018-08-28T07:03:11.354Z,26.16
2018-08-28T07:04:11.287Z,25.82
2018-08-28T07:06:04.085Z,26.11
2018-08-28T07:07:04.015Z,25.81
2018-08-28T07:08:56.800Z,25.98
2018-08-28T07:09:56.741Z,26.36
2018-08-28T07:11:48.582Z,26.64
2018-08-28T07:12:48.516Z,26.44
2018-08-28T07:14:41.288Z,26.38
2018-08-28T07:15:41.233Z,26.73
2018-08-28T07:17:34.018Z,26.72
2018-08-28T07:18:33.987Z,26.87
2018-08-28T07:20:26.787Z,27.06
2018-08-28T07:21:26.671Z,26.44
2018-08-28T07:23:19.442Z,26.90
2018-08-28T07:24:19.395Z,26.88
2018-08-28T07:26:12.381Z,26.56
2018-08-28T07:27:12.103Z,26.88
2018-08-28T07:29:04.892Z,27.12
2018-08-28T07:30:04.847Z,27.18
2018-08-28T07:31:57.631Z,27.03
2018-08-28T07:32:57.558Z,26.97
2018-08-28T07:34:50.338Z,26.79
2018-08-28T07:35:50.280Z,26.79
2018-08-28T07:37:43.073Z,26.61
2018-08-28T07:38:43.001Z,26.44
2018-08-28T07:40:35.798Z,26.21
2018-08-28T07:41:35.728Z,25.96
2018-08-28T07:43:28.521Z,26.44
2018-08-28T07:44:28.453Z,26.76
2018-08-28T07:46:21.276Z,27.25
2018-08-28T07:47:21.188Z,27.23
2018-08-28T07:49:14.021Z,27.55
2018-08-28T07:50:13.919Z,27.77
2018-08-28T07:52:06.719Z,27.48
2018-08-28T07:53:06.651Z,27.59
2018-08-28T07:54:59.440Z,27.71
2018-08-28T07:55:59.384Z,27.93
2018-08-28T07:57:52.170Z,28.24
2018-08-28T07:58:52.102Z,28.03
2018-08-28T08:00:44.918Z,28.17
2018-08-28T08:01:44.835Z,27.81
2018-08-28T08:03:37.623Z,28.28
2018-08-28T08:04:37.569Z,28.21
2018-08-28T08:06:30.350Z,27.99
2018-08-28T08:07:30.280Z,27.86
2018-08-28T08:09:23.079Z,28.01
2018-08-28T08:10:23.075Z,28.30
2018-08-28T08:12:15.807Z,28.77
2018-08-28T08:13:15.744Z,29.07
2018-08-28T08:15:08.531Z,28.94
2018-08-28T08:16:08.479Z,29.03
2018-08-28T08:18:00.412Z,28.80
2018-08-28T08:19:00.360Z,28.72
2018-08-28T08:20:53.150Z,28.58
2018-08-28T08:21:53.086Z,28.69
2018-08-28T08:23:45.868Z,28.73
2018-08-28T08:24:45.813Z,28.40
2018-08-28T08:26:39.527Z,28.72
2018-08-28T08:27:39.474Z,28.39
2018-08-28T08:29:32.246Z,28.46
2018-08-28T08:30:32.205Z,27.74
2018-08-28T08:32:25.001Z,28.46
2018-08-28T08:33:24.938Z,28.72
2018-08-28T08:35:17.853Z,27.86
2018-08-28T08:36:17.674Z,27.08
2018-08-28T08:38:10.463Z,26.24
2018-08-28T08:39:10.387Z,26.31
2018-08-28T08:41:03.189Z,26.91
2018-08-28T08:42:03.172Z,26.79
2018-08-28T08:43:55.919Z,25.98
2018-08-28T08:44:55.851Z,25.81
2018-08-28T08:46:48.679Z,25.97
2018-08-28T08:47:48.621Z,26.78
2018-08-28T08:49:41.405Z,26.93
2018-08-28T08:50:41.349Z,27.45
2018-08-28T08:52:34.142Z,27.35
2018-08-28T08:53:34.075Z,27.71
2018-08-28T08:55:26.879Z,28.36
2018-08-28T08:56:26.816Z,28.55
2018-08-28T08:58:19.615Z,28.69
2018-08-28T08:59:19.545Z,29.03
2018-08-28T09:01:12.386Z,29.15
2018-08-28T09:02:12.323Z,29.05
2018-08-28T09:04:05.114Z,28.88
2018-08-28T09:05:05.058Z,28.60
2018-08-28T09:06:57.854Z,28.98
2018-08-28T09:07:57.776Z,29.02
2018-08-28T09:09:50.568Z,27.87
2018-08-28T09:10:50.518Z,27.99
2018-08-28T09:12:43.319Z,27.38
2018-08-28T09:13:43.255Z,27.69
2018-08-28T09:15:36.034Z,28.32
2018-08-28T09:16:35.974Z,28.30
2018-08-28T09:18:28.808Z,28.06
2018-08-28T09:19:28.774Z,28.32
2018-08-28T09:21:21.534Z,28.58
2018-08-28T09:22:21.465Z,28.28
2018-08-28T09:24:14.264Z,29.21
2018-08-28T09:25:14.190Z,29.21
2018-08-28T09:27:06.990Z,29.03
2018-08-28T09:28:06.932Z,28.97
2018-08-28T09:29:59.746Z,29.03
2018-08-28T09:30:59.669Z,28.54
2018-08-28T09:32:52.476Z,28.70
2018-08-28T09:33:52.404Z,29.17
2018-08-28T09:35:45.192Z,29.76
2018-08-28T09:36:45.126Z,29.82
2018-08-28T09:38:37.972Z,29.91
2018-08-28T09:39:37.881Z,30.01
2018-08-28T09:41:30.683Z,29.86
2018-08-28T09:42:30.618Z,29.74
2018-08-28T09:44:23.423Z,29.84
2018-08-28T09:45:23.358Z,29.70
2018-08-28T09:47:16.156Z,29.25
2018-08-28T09:48:16.237Z,29.48
2018-08-28T09:50:08.950Z,29.52
2018-08-28T09:51:08.917Z,29.66
2018-08-28T09:53:01.641Z,29.57
2018-08-28T09:54:01.560Z,29.15
2018-08-28T09:55:54.392Z,29.33
2018-08-28T09:56:54.334Z,29.30
2018-08-28T09:58:47.215Z,29.27
2018-08-28T09:59:47.111Z,29.10
2018-08-28T10:01:39.943Z,29.33
2018-08-28T10:02:39.864Z,28.83
2018-08-28T10:04:32.659Z,28.98
2018-08-28T10:05:32.604Z,29.15
2018-08-28T10:07:25.426Z,29.42
2018-08-28T10:08:25.358Z,29.00
2018-08-28T10:10:18.133Z,28.89
2018-08-28T10:11:18.081Z,29.02
2018-08-28T10:13:10.899Z,29.11
2018-08-28T10:14:10.836Z,28.73
2018-08-28T10:16:03.623Z,28.54
2018-08-28T10:17:03.578Z,28.54
2018-08-28T10:18:56.367Z,28.36
2018-08-28T10:19:56.313Z,28.05
2018-08-28T10:21:49.081Z,27.40
2018-08-28T10:22:49.044Z,27.21
2018-08-28T10:24:41.835Z,27.77
2018-08-28T10:25:41.762Z,28.15
2018-08-28T10:27:34.570Z,28.52
2018-08-28T10:28:34.505Z,28.57
2018-08-28T10:30:27.322Z,28.67
2018-08-28T10:31:27.217Z,28.70
2018-08-28T10:33:20.019Z,28.54
2018-08-28T10:34:19.941Z,28.23
2018-08-28T10:36:12.732Z,27.71
2018-08-28T10:37:12.675Z,27.84
2018-08-28T10:39:05.462Z,27.98
2018-08-28T10:40:05.398Z,28.05
2018-08-28T10:41:58.185Z,27.95
2018-08-28T10:42:58.124Z,28.03
2018-08-28T10:44:50.907Z,27.62
2018-08-28T10:45:50.841Z,27.46
2018-08-28T10:47:43.634Z,27.05
2018-08-28T10:48:43.565Z,26.83
2018-08-28T10:50:36.348Z,26.41
2018-08-28T10:51:36.291Z,26.42
2018-08-28T10:53:29.088Z,26.69
2018-08-28T10:54:29.011Z,26.47
2018-08-28T10:56:21.802Z,26.49
2018-08-28T10:57:21.746Z,26.78
2018-08-28T10:59:14.548Z,27.11
2018-08-28T11:00:14.473Z,27.13
2018-08-28T11:02:07.252Z,26.91
2018-08-28T11:03:07.192Z,26.47
2018-08-28T11:05:00.014Z,26.21
2018-08-28T11:05:59.933Z,26.21
2018-08-28T11:07:52.733Z,26.17
2018-08-28T11:08:52.654Z,25.89
2018-08-28T11:10:45.442Z,25.61
2018-08-28T11:11:45.383Z,25.78
2018-08-28T11:13:38.190Z,25.97
2018-08-28T11:14:38.128Z,26.20
2018-08-28T11:16:30.893Z,26.53
2018-08-28T11:17:30.852Z,26.51
2018-08-28T11:19:23.622Z,26.86
2018-08-28T11:20:23.556Z,26.86
2018-08-28T11:22:16.334Z,26.79
2018-08-28T11:23:16.274Z,26.94
2018-08-28T11:25:09.072Z,26.73
2018-08-28T11:26:08.997Z,26.69
2018-08-28T11:28:01.775Z,26.66
2018-08-28T11:29:01.707Z,26.66
2018-08-28T11:30:54.497Z,26.65
2018-08-28T11:31:54.427Z,26.49
2018-08-28T11:33:47.290Z,26.12
2018-08-28T11:34:47.264Z,25.97
2018-08-28T11:36:40.156Z,26.24
2018-08-28T11:37:40.096Z,26.23
2018-08-28T11:39:33.011Z,26.42
2018-08-28T11:40:32.993Z,26.60
2018-08-28T11:42:25.689Z,26.81
2018-08-28T11:43:25.625Z,26.78
2018-08-28T11:45:18.414Z,26.59
2018-08-28T11:46:18.343Z,26.49
2018-08-28T11:48:11.129Z,26.41
2018-08-28T11:49:11.059Z,26.44
2018-08-28T11:51:03.842Z,26.24
2018-08-28T11:52:03.780Z,26.19
2018-08-28T11:53:56.585Z,26.03
2018-08-28T11:54:56.514Z,26.01
2018-08-28T11:56:49.297Z,26.23
2018-08-28T11:57:49.236Z,26.19
2018-08-28T11:59:42.030Z,26.44
2018-08-28T12:00:41.957Z,26.61
2018-08-28T12:02:34.771Z,26.49
2018-08-28T12:03:34.710Z,26.66
2018-08-28T12:05:27.599Z,26.53
2018-08-28T12:06:27.428Z,26.56
2018-08-28T12:08:20.292Z,26.34
2018-08-28T12:09:20.160Z,26.20
2018-08-28T12:11:12.990Z,26.12
2018-08-28T12:12:12.878Z,25.97
2018-08-28T12:14:05.764Z,25.64
2018-08-28T12:15:05.634Z,25.64
2018-08-28T12:16:58.420Z,25.53
2018-08-28T12:17:58.356Z,25.41
2018-08-28T12:19:50.328Z,25.26
2018-08-28T12:20:50.331Z,25.23
2018-08-28T12:22:43.026Z,25.20
2018-08-28T12:23:42.974Z,25.29
2018-08-28T12:25:35.763Z,25.36
2018-08-28T12:26:35.756Z,25.44
2018-08-28T12:28:28.487Z,25.66
2018-08-28T12:29:28.443Z,25.93
2018-08-28T12:31:21.196Z,26.13
2018-08-28T12:32:21.151Z,25.97
2018-08-28T12:34:13.919Z,25.85
2018-08-28T12:35:13.914Z,25.82
2018-08-28T12:37:06.704Z,25.97
2018-08-28T12:38:06.603Z,25.79
2018-08-28T12:39:59.384Z,25.83
2018-08-28T12:40:59.309Z,25.59
2018-08-28T12:42:52.096Z,25.45
2018-08-28T12:43:52.095Z,25.45
2018-08-28T12:45:44.851Z,25.29
2018-08-28T12:46:44.857Z,25.22
2018-08-28T12:48:37.584Z,25.23
2018-08-28T12:49:37.509Z,25.17
2018-08-28T12:51:30.431Z,25.34
2018-08-28T12:52:30.253Z,25.23
2018-08-28T12:54:23.040Z,25.31
2018-08-28T12:55:22.963Z,25.20
2018-08-28T12:57:15.787Z,25.34
2018-08-28T12:58:15.692Z,25.38
2018-08-28T13:00:08.531Z,25.44
2018-08-28T13:01:08.472Z,25.54
2018-08-28T13:03:01.262Z,25.53
2018-08-28T13:04:01.183Z,25.54
2018-08-28T13:05:54.005Z,25.53
2018-08-28T13:06:53.918Z,25.60
2018-08-28T13:08:46.713Z,25.61
2018-08-28T13:09:46.635Z,25.51
2018-08-28T13:11:39.431Z,25.44
2018-08-28T13:12:39.369Z,25.35
2018-08-28T13:14:32.282Z,25.57
2018-08-28T13:15:32.087Z,25.44
2018-08-28T13:17:24.905Z,25.49
2018-08-28T13:18:24.855Z,25.56
2018-08-28T13:20:17.623Z,25.59
2018-08-28T13:21:17.574Z,25.61
2018-08-28T13:23:10.357Z,25.75
2018-08-28T13:24:10.289Z,25.75
2018-08-28T13:26:03.128Z,25.83
2018-08-28T13:27:03.046Z,25.85
2018-08-28T13:28:55.826Z,25.72
2018-08-28T13:29:55.735Z,25.67
2018-08-28T13:31:48.529Z,25.54
2018-08-28T13:32:48.510Z,25.49
2018-08-28T13:34:41.292Z,25.48
2018-08-28T13:35:41.209Z,25.49
2018-08-28T13:37:34.023Z,25.59
2018-08-28T13:38:33.956Z,25.67
2018-08-28T13:40:26.860Z,25.71
2018-08-28T13:41:26.700Z,25.64
2018-08-28T13:43:19.458Z,25.46
2018-08-28T13:44:19.397Z,25.41
2018-08-28T13:46:12.212Z,25.30
2018-08-28T13:47:12.193Z,25.30
2018-08-28T13:49:04.925Z,24.99
2018-08-28T13:50:04.866Z,25.05
2018-08-28T13:51:57.645Z,24.90
2018-08-28T13:52:57.584Z,24.90
2018-08-28T13:54:50.435Z,24.92
2018-08-28T13:55:50.330Z,24.94
2018-08-28T13:57:43.113Z,24.77
2018-08-28T13:58:43.044Z,24.84
2018-08-28T14:00:35.858Z,24.99
2018-08-28T14:01:35.765Z,24.94
2018-08-28T14:03:28.554Z,25.08
2018-08-28T14:04:28.481Z,25.17
2018-08-28T14:06:21.283Z,25.29
2018-08-28T14:07:21.211Z,25.23
2018-08-28T14:09:14.020Z,25.49
2018-08-28T14:10:13.941Z,25.44
2018-08-28T14:12:06.735Z,25.44
2018-08-28T14:13:06.665Z,25.61
2018-08-28T14:14:59.606Z,25.82
2018-08-28T14:15:59.403Z,25.94
2018-08-28T14:17:52.160Z,26.19
2018-08-28T14:18:52.148Z,26.11
2018-08-28T14:20:44.926Z,25.93
2018-08-28T14:21:44.864Z,25.82
2018-08-28T14:23:37.676Z,25.66
2018-08-28T14:24:37.614Z,25.66
2018-08-28T14:26:30.385Z,25.53
2018-08-28T14:27:30.331Z,25.49
2018-08-28T14:29:23.180Z,25.48
2018-08-28T14:30:23.064Z,25.42
2018-08-28T14:32:15.911Z,25.29
2018-08-28T14:33:15.780Z,25.26
2018-08-28T14:35:08.559Z,25.19
2018-08-28T14:36:08.490Z,25.26
2018-08-28T14:38:01.284Z,25.24
2018-08-28T14:39:01.237Z,25.19
2018-08-28T14:41:08.820Z,25.01
2018-08-28T14:42:08.746Z,25.09
2018-08-28T14:44:01.525Z,25.12
2018-08-28T14:45:01.462Z,25.24
2018-08-28T14:46:54.248Z,25.16
2018-08-28T14:47:54.176Z,25.14
2018-08-28T14:49:47.008Z,24.90
2018-08-28T14:50:46.898Z,24.94
2018-08-28T14:52:39.668Z,24.86
2018-08-28T14:53:39.603Z,24.89
2018-08-28T14:55:32.400Z,24.83
2018-08-28T14:56:32.413Z,24.87
2018-08-28T14:58:24.363Z,24.83
2018-08-28T14:59:24.247Z,24.84
2018-08-28T15:01:17.043Z,24.98
2018-08-28T15:02:16.977Z,24.98
2018-08-28T15:04:09.743Z,24.90
2018-08-28T15:05:09.681Z,24.98
2018-08-28T15:07:02.507Z,24.97
2018-08-28T15:08:02.413Z,24.97
2018-08-28T15:09:55.232Z,24.92
2018-08-28T15:10:55.159Z,24.83
2018-08-28T15:12:47.934Z,24.60
2018-08-28T15:13:47.875Z,24.51
2018-08-28T15:15:40.659Z,24.49
2018-08-28T15:16:40.798Z,24.39
2018-08-28T15:18:33.350Z,24.48
2018-08-28T15:19:33.291Z,24.39
2018-08-28T15:21:26.075Z,24.26
2018-08-28T15:22:26.013Z,24.29
2018-08-28T15:24:18.772Z,24.39
2018-08-28T15:25:18.800Z,24.44
2018-08-28T15:27:11.587Z,24.51
2018-08-28T15:28:11.443Z,24.56
2018-08-28T15:30:04.220Z,24.77
2018-08-28T15:31:04.156Z,24.77
2018-08-28T15:32:56.931Z,24.83
2018-08-28T15:33:56.869Z,24.80
2018-08-28T15:35:49.662Z,24.86
2018-08-28T15:36:49.578Z,24.92
2018-08-28T15:38:42.371Z,24.93
2018-08-28T15:39:42.319Z,24.94
2018-08-28T15:41:34.190Z,24.93
2018-08-28T15:42:34.083Z,24.87
2018-08-28T15:44:26.855Z,24.97
2018-08-28T15:45:26.798Z,24.98
2018-08-28T15:47:19.594Z,24.64
2018-08-28T15:48:19.523Z,24.64
2018-08-28T15:50:12.325Z,24.68
2018-08-28T15:51:12.260Z,24.79
2018-08-28T15:53:05.007Z,24.60
2018-08-28T15:54:04.948Z,24.66
2018-08-28T15:55:57.737Z,24.53
2018-08-28T15:56:57.662Z,24.51
2018-08-28T15:58:50.493Z,24.31
2018-08-28T15:59:50.376Z,24.18
2018-08-28T16:01:43.186Z,24.21
2018-08-28T16:02:43.094Z,24.19
2018-08-28T16:04:35.903Z,24.18
2018-08-28T16:05:35.810Z,24.15
2018-08-28T16:07:28.598Z,24.05
2018-08-28T16:08:28.528Z,24.02
2018-08-28T16:10:21.295Z,24.00
2018-08-28T16:11:21.246Z,23.97
2018-08-28T16:13:14.024Z,23.89
2018-08-28T16:14:13.952Z,23.92
2018-08-28T16:16:06.748Z,23.74
2018-08-28T16:17:06.679Z,23.72
2018-08-28T16:18:59.462Z,23.69
2018-08-28T16:19:59.433Z,23.67
2018-08-28T16:21:52.176Z,23.62
2018-08-28T16:22:52.101Z,23.59
2018-08-28T16:24:44.881Z,23.56
2018-08-28T16:25:44.817Z,23.57
2018-08-28T16:27:37.598Z,23.52
2018-08-28T16:28:37.525Z,23.32
2018-08-28T16:30:30.305Z,23.35
2018-08-28T16:31:30.247Z,23.31
2018-08-28T16:33:23.037Z,23.26
2018-08-28T16:34:22.959Z,23.22
2018-08-28T16:36:15.765Z,23.21
2018-08-28T16:37:15.680Z,23.18
2018-08-28T16:39:08.452Z,23.23
2018-08-28T16:40:08.391Z,23.16
2018-08-28T16:42:01.175Z,23.12
2018-08-28T16:43:01.113Z,23.16
2018-08-28T16:44:53.871Z,23.11
2018-08-28T16:45:53.810Z,23.07
2018-08-28T16:47:46.605Z,23.14
2018-08-28T16:48:46.531Z,23.11
2018-08-28T16:50:39.306Z,22.97
2018-08-28T16:51:39.267Z,22.97
2018-08-28T16:53:32.030Z,22.93
2018-08-28T16:54:31.958Z,22.96
2018-08-28T16:56:24.749Z,22.81
2018-08-28T16:57:24.680Z,22.79
2018-08-28T16:59:17.453Z,22.75
2018-08-28T17:00:17.390Z,22.74
2018-08-28T17:02:10.252Z,22.76
2018-08-28T17:03:10.096Z,22.75
2018-08-28T17:05:02.860Z,22.64
2018-08-28T17:06:02.799Z,22.61
2018-08-28T17:07:55.585Z,22.60
2018-08-28T17:08:55.510Z,22.59
2018-08-28T17:10:47.275Z,22.52
2018-08-28T17:11:47.211Z,22.57
2018-08-28T17:13:40.004Z,22.45
2018-08-28T17:14:40.039Z,22.54
2018-08-28T17:16:32.709Z,22.56
2018-08-28T17:17:32.629Z,22.63
2018-08-28T17:19:25.413Z,22.56
2018-08-28T17:20:25.343Z,22.54
2018-08-28T17:22:18.137Z,22.49
2018-08-28T17:23:18.065Z,22.51
2018-08-28T17:25:10.863Z,22.52
2018-08-28T17:26:10.783Z,22.45
2018-08-28T17:28:03.561Z,22.46
2018-08-28T17:29:03.487Z,22.51
2018-08-28T17:30:56.323Z,22.38
2018-08-28T17:31:56.194Z,22.38
2018-08-28T17:33:48.994Z,22.29
2018-08-28T17:34:48.907Z,22.33
2018-08-28T17:36:41.695Z,22.21
2018-08-28T17:37:41.622Z,22.19
2018-08-28T17:39:34.406Z,22.01
2018-08-28T17:40:34.358Z,21.89
2018-08-28T17:42:27.158Z,21.77
2018-08-28T17:43:27.060Z,21.89
2018-08-28T17:45:19.834Z,21.64
2018-08-28T17:46:19.777Z,21.56
2018-08-28T17:48:12.553Z,21.49
2018-08-28T17:49:12.533Z,21.36
2018-08-28T17:51:05.246Z,21.18
2018-08-28T17:52:05.197Z,21.13
2018-08-28T17:53:57.970Z,20.91
2018-08-28T17:54:57.909Z,20.83
2018-08-28T17:56:50.709Z,20.61
2018-08-28T17:57:50.597Z,20.63
2018-08-28T17:59:43.368Z,20.41
2018-08-28T18:00:43.301Z,20.34
2018-08-28T18:02:36.096Z,20.17
2018-08-28T18:03:36.015Z,20.08
2018-08-28T18:05:28.790Z,19.98
2018-08-28T18:06:28.723Z,19.98
2018-08-28T18:08:21.499Z,19.82
2018-08-28T18:09:21.487Z,19.70
2018-08-28T18:11:14.189Z,19.62
2018-08-28T18:12:14.128Z,19.55
2018-08-28T18:14:06.907Z,19.42
2018-08-28T18:15:06.839Z,19.35
2018-08-28T18:16:59.637Z,19.21
2018-08-28T18:17:59.594Z,19.31
2018-08-28T18:19:52.320Z,19.12
2018-08-28T18:20:52.269Z,19.05
2018-08-28T18:22:45.070Z,18.90
2018-08-28T18:23:44.998Z,18.83
2018-08-28T18:25:37.769Z,18.84
2018-08-28T18:26:37.701Z,18.76
2018-08-28T18:28:29.544Z,18.78
2018-08-28T18:29:29.499Z,18.71
2018-08-28T18:31:22.243Z,18.69